Flight Track Log - Related Links

Times and Time Zones

All times are in EDT time to prevent confusion due to time zone crossing. See the AWI3778 flight status page for this flight to view local times or setup timezone preferences in your user account.

Time Position Orientation Groundspeed Altitude Reporting Facility
EDT Latitude Longitude Course Direction KTS MPH feet Rate Location/Type
Wed 11:57:32 AM 39.8833 -75.2167 46° Northeast 152 175 1,100  Level Philadelphia TRACON
Wed 11:59:18 AM 39.8531 -75.0947 108° East 222 255 4,900 2,313 Climbing New York Center
Wed 12:00:00 PM 39.8278 -74.6557 37° Northeast  Level FlightAware Approximate
Wed 12:00:18 PM 39.8392 -75.0153 103° East 246 283 7,500  Level New York Center
Wed 12:01:00 PM 39.9254 -74.5667 North  Level FlightAware Approximate
Wed 12:01:16 PM 39.8222 -74.9089 102° East 264 304 9,600  Level New York Center
Wed 12:02:00 PM 40.0162 -74.4673 46° Northeast  Level FlightAware Approximate
Wed 12:02:16 PM 39.8086 -74.8161 101° East 278 320 11,700  Level New York Center
Wed 12:03:17 PM 39.8039 -74.7133 93° East 284 327 13,900 2,016 Climbing New York Center
Wed 12:04:18 PM 39.8686 -74.6411 41° Northeast 259 298 15,800 1,916 Climbing New York Center
Wed 12:05:16 PM 39.9375 -74.5747 36° Northeast 272 313 17,700 1,664 Climbing New York Center
Wed 12:06:17 PM 40.0064 -74.5078 37° Northeast 290 334 19,100 1,339 Climbing New York Center
Wed 12:07:17 PM 40.0775 -74.4386 37° Northeast 307 353 20,400 1,388 Climbing New York Center
Wed 12:08:18 PM 40.1528 -74.3636 37° Northeast 320 368 21,900 1,488 Climbing New York Center
Wed 12:09:18 PM 40.2236 -74.2939 37° Northeast 320 368 23,400 1,322 Climbing New York Center
Wed 12:10:16 PM 40.2986 -74.2217 36° Northeast 320 368 24,500 807 Climbing New York Center
Wed 12:11:17 PM 40.3694 -74.1489 38° Northeast 320 368 25,000 246 Climbing New York Center
Wed 12:12:18 PM 40.4525 -74.0875 29° Northeast 326 375 25,000  Level New York Center
Wed 12:13:18 PM 40.5436 -74.0347 24° Northeast 338 389 25,000  Level New York Center
Wed 12:15:14 PM 40.7275 -73.9272 24° Northeast 350 403 25,000  Level Boston Center
Wed 12:16:14 PM 40.8219 -73.8689 25° Northeast 361 415 25,000  Level Boston Center
Wed 12:17:14 PM 40.9144 -73.8133 24° Northeast 361 415 25,000  Level Boston Center
Wed 12:18:14 PM 41.0069 -73.7547 26° Northeast 361 415 25,000  Level Boston Center
Wed 12:19:14 PM 41.0969 -73.7017 24° Northeast 361 415 25,000  Level Boston Center
Wed 12:20:14 PM 41.1872 -73.6453 25° Northeast 361 415 25,000  Level Boston Center
Wed 12:21:14 PM 41.2858 -73.5864 24° Northeast 361 415 25,000  Level Boston Center
Wed 12:22:14 PM 41.3861 -73.5661 North 356 410 25,000  Level Boston Center
Wed 12:23:14 PM 41.4861 -73.5542 North 351 404 25,000  Level Boston Center
Wed 12:24:14 PM 41.5758 -73.5472 North 357 411 25,000  Level Boston Center
Wed 12:25:14 PM 41.6761 -73.5322 North 357 411 25,000  Level Boston Center
Wed 12:26:14 PM 41.7764 -73.5175 North 362 417 25,000  Level Boston Center
Wed 12:27:14 PM 41.8786 -73.5053 North 367 422 25,000  Level Boston Center
Wed 12:28:14 PM 41.9808 -73.4903 North 367 422 25,000  Level Boston Center
Wed 12:29:14 PM 42.0956 -73.4669 North 373 429 25,000  Level Boston Center
Wed 12:30:14 PM 42.1936 -73.4544 North 366 421 25,000  Level Boston Center
Wed 12:31:14 PM 42.2961 -73.4364 North 366 421 25,000  Level Boston Center
Wed 12:32:14 PM 42.3856 -73.4350 North 361 415 25,000  Level Boston Center
Wed 12:33:14 PM 42.4878 -73.4228 North 361 415 25,000  Level Boston Center
Wed 12:34:14 PM 42.5983 -73.4047 North 366 421 25,000  Level Boston Center
Wed 12:35:14 PM 42.6986 -73.3922 North 366 421 25,000  Level Boston Center
Wed 12:36:14 PM 42.7989 -73.3739 North 366 421 25,000  Level Boston Center
Wed 12:37:14 PM 42.8761 -73.3608 North 366 421 25,000  Level Boston Center
Wed 12:38:14 PM 43.0033 -73.3458 North 366 421 25,000  Level Boston Center
Wed 12:39:14 PM 43.0933 -73.2844 26° Northeast 361 415 25,000 -350 Level Boston Center
Wed 12:40:14 PM 43.1814 -73.2175 29° Northeast 361 415 24,300 -550 Descending Boston Center
Wed 12:41:14 PM 43.2814 -73.2044 North 345 397 23,900 -1,300 Descending Boston Center
Wed 12:42:14 PM 43.3772 -73.2028 North 345 397 21,700 -2,300 Descending Boston Center
Wed 12:43:14 PM 43.4608 -73.1981 North 345 397 19,300 -2,100 Descending Boston Center
Wed 12:44:14 PM 43.5544 -73.1906 North 340 391 17,500 -2,100 Descending Boston Center
Wed 12:45:14 PM 43.6464 -73.1889 North 329 379 15,100 -2,550 Descending Boston Center
Wed 12:46:14 PM 43.7422 -73.1844 North 324 373 12,400 -2,050 Descending Boston Center
Wed 12:47:14 PM 43.8317 -73.1825 North 319 367 11,000 -700 Descending Boston Center
Wed 12:48:14 PM 43.9172 -73.1778 North 307 353 11,000 -100 Level Boston Center
Wed 12:49:14 PM 44.0006 -73.1644 North 307 353 10,800 -1,000 Descending Boston Center
Wed 12:50:14 PM 44.0739 -73.1336 17° North 288 331 9,000 -2,000 Descending Boston Center
Wed 12:51:14 PM 44.1428 -73.1114 13° North 278 320 6,800 -1,850 Descending Boston Center
Wed 12:52:14 PM 44.2178 -73.1064 North 268 308 5,300 -1,200 Descending Boston Center
Wed 12:53:14 PM 44.2822 -73.1042 North 247 284 4,400 -900 Descending Boston Center

Login

Don't have an account? Register now (free) for customized features, flight alerts, and more!